sensor_id;sensor_type;location;lat;lon;timestamp;temperature;humidity
14079;DHT22;7115;50.150;8.568;2023-11-19T00:01:50;8.70;99.90
14079;DHT22;7115;50.150;8.568;2023-11-19T00:04:17;8.70;99.90
14079;DHT22;7115;50.150;8.568;2023-11-19T00:06:44;8.80;99.90
14079;DHT22;7115;50.150;8.568;2023-11-19T00:09:11;8.80;99.90
14079;DHT22;7115;50.150;8.568;2023-11-19T00:11:38;8.80;99.90
14079;DHT22;7115;50.150;8.568;2023-11-19T00:14:06;8.90;99.90
14079;DHT22;7115;50.150;8.568;2023-11-19T00:16:35;8.90;99.90
14079;DHT22;7115;50.150;8.568;2023-11-19T00:19:02;8.90;99.90
14079;DHT22;7115;50.150;8.568;2023-11-19T00:21:31;8.90;99.90
14079;DHT22;7115;50.150;8.568;2023-11-19T00:24:00;8.90;99.90
14079;DHT22;7115;50.150;8.568;2023-11-19T00:26:26;8.90;99.90
14079;DHT22;7115;50.150;8.568;2023-11-19T00:28:53;8.90;99.90
14079;DHT22;7115;50.150;8.568;2023-11-19T00:31:24;8.90;99.90
14079;DHT22;7115;50.150;8.568;2023-11-19T00:33:51;8.90;99.90
14079;DHT22;7115;50.150;8.568;2023-11-19T00:36:18;8.90;99.90
14079;DHT22;7115;50.150;8.568;2023-11-19T00:38:45;8.90;99.90
14079;DHT22;7115;50.150;8.568;2023-11-19T00:41:12;8.90;99.90
14079;DHT22;7115;50.150;8.568;2023-11-19T00:43:38;8.90;99.90
14079;DHT22;7115;50.150;8.568;2023-11-19T00:46:07;9.00;99.90
14079;DHT22;7115;50.150;8.568;2023-11-19T00:48:37;9.00;99.90
14079;DHT22;7115;50.150;8.568;2023-11-19T00:51:05;9.00;99.90
14079;DHT22;7115;50.150;8.568;2023-11-19T00:53:32;9.00;99.90
14079;DHT22;7115;50.150;8.568;2023-11-19T00:56:00;9.00;99.90
14079;DHT22;7115;50.150;8.568;2023-11-19T00:58:27;9.00;99.90
14079;DHT22;7115;50.150;8.568;2023-11-19T01:00:54;9.00;99.90
14079;DHT22;7115;50.150;8.568;2023-11-19T01:03:21;9.00;99.90
14079;DHT22;7115;50.150;8.568;2023-11-19T01:05:49;9.00;99.90
14079;DHT22;7115;50.150;8.568;2023-11-19T01:08:19;9.00;99.90
14079;DHT22;7115;50.150;8.568;2023-11-19T01:10:45;9.00;99.90
14079;DHT22;7115;50.150;8.568;2023-11-19T01:13:12;9.00;99.90
14079;DHT22;7115;50.150;8.568;2023-11-19T01:15:39;9.00;99.90
14079;DHT22;7115;50.150;8.568;2023-11-19T01:18:08;9.00;99.90
14079;DHT22;7115;50.150;8.568;2023-11-19T01:20:36;9.00;99.90
14079;DHT22;7115;50.150;8.568;2023-11-19T01:23:04;9.10;99.90
14079;DHT22;7115;50.150;8.568;2023-11-19T01:25:32;9.10;99.90
14079;DHT22;7115;50.150;8.568;2023-11-19T01:27:59;9.10;99.90
14079;DHT22;7115;50.150;8.568;2023-11-19T01:30:26;9.20;99.90
14079;DHT22;7115;50.150;8.568;2023-11-19T01:32:53;9.20;99.90
14079;DHT22;7115;50.150;8.568;2023-11-19T01:35:20;9.20;99.90
14079;DHT22;7115;50.150;8.568;2023-11-19T01:37:47;9.20;99.90
14079;DHT22;7115;50.150;8.568;2023-11-19T01:40:15;9.30;99.90
14079;DHT22;7115;50.150;8.568;2023-11-19T01:42:43;9.30;99.90
14079;DHT22;7115;50.150;8.568;2023-11-19T01:45:21;9.30;99.90
14079;DHT22;7115;50.150;8.568;2023-11-19T01:47:48;9.40;99.90
14079;DHT22;7115;50.150;8.568;2023-11-19T01:50:15;9.40;99.90
14079;DHT22;7115;50.150;8.568;2023-11-19T01:52:42;9.40;99.90
14079;DHT22;7115;50.150;8.568;2023-11-19T01:55:10;9.40;99.90
14079;DHT22;7115;50.150;8.568;2023-11-19T01:57:40;9.40;99.90
14079;DHT22;7115;50.150;8.568;2023-11-19T02:00:09;9.40;99.90
14079;DHT22;7115;50.150;8.568;2023-11-19T02:02:40;9.40;99.90
14079;DHT22;7115;50.150;8.568;2023-11-19T02:05:08;9.40;99.90
14079;DHT22;7115;50.150;8.568;2023-11-19T02:07:35;9.30;99.90
14079;DHT22;7115;50.150;8.568;2023-11-19T02:10:02;9.30;99.90
14079;DHT22;7115;50.150;8.568;2023-11-19T02:12:32;9.30;99.90
14079;DHT22;7115;50.150;8.568;2023-11-19T02:15:04;9.30;99.90
14079;DHT22;7115;50.150;8.568;2023-11-19T02:17:31;9.30;99.90
14079;DHT22;7115;50.150;8.568;2023-11-19T02:19:58;9.30;99.90
14079;DHT22;7115;50.150;8.568;2023-11-19T02:22:25;9.30;99.90
14079;DHT22;7115;50.150;8.568;2023-11-19T02:24:57;9.30;99.90
14079;DHT22;7115;50.150;8.568;2023-11-19T02:29:59;9.30;99.90
14079;DHT22;7115;50.150;8.568;2023-11-19T02:32:27;9.30;99.90
14079;DHT22;7115;50.150;8.568;2023-11-19T02:34:54;9.30;99.90
14079;DHT22;7115;50.150;8.568;2023-11-19T02:37:34;9.30;99.90
14079;DHT22;7115;50.150;8.568;2023-11-19T02:40:01;9.30;99.90
14079;DHT22;7115;50.150;8.568;2023-11-19T02:42:30;9.30;99.90
14079;DHT22;7115;50.150;8.568;2023-11-19T02:44:58;9.30;99.90
14079;DHT22;7115;50.150;8.568;2023-11-19T02:47:25;9.30;99.90
14079;DHT22;7115;50.150;8.568;2023-11-19T02:49:52;9.30;99.90
14079;DHT22;7115;50.150;8.568;2023-11-19T02:52:19;9.30;99.90
14079;DHT22;7115;50.150;8.568;2023-11-19T02:54:46;9.30;99.90
14079;DHT22;7115;50.150;8.568;2023-11-19T02:57:13;9.40;99.90
14079;DHT22;7115;50.150;8.568;2023-11-19T02:59:43;9.40;99.90
14079;DHT22;7115;50.150;8.568;2023-11-19T03:02:11;9.40;99.90
14079;DHT22;7115;50.150;8.568;2023-11-19T03:04:39;9.40;99.90
14079;DHT22;7115;50.150;8.568;2023-11-19T03:07:10;9.50;99.90
14079;DHT22;7115;50.150;8.568;2023-11-19T03:09:37;9.50;99.90
14079;DHT22;7115;50.150;8.568;2023-11-19T03:12:07;9.40;99.90
14079;DHT22;7115;50.150;8.568;2023-11-19T03:14:34;9.50;99.90
14079;DHT22;7115;50.150;8.568;2023-11-19T03:17:02;9.50;99.90
14079;DHT22;7115;50.150;8.568;2023-11-19T03:19:31;9.50;99.90
14079;DHT22;7115;50.150;8.568;2023-11-19T03:21:58;9.60;99.90
14079;DHT22;7115;50.150;8.568;2023-11-19T03:24:26;9.60;99.90
14079;DHT22;7115;50.150;8.568;2023-11-19T03:26:53;9.50;99.90
14079;DHT22;7115;50.150;8.568;2023-11-19T03:29:20;9.50;99.90
14079;DHT22;7115;50.150;8.568;2023-11-19T03:31:47;9.50;99.90
14079;DHT22;7115;50.150;8.568;2023-11-19T03:34:14;9.60;99.90
14079;DHT22;7115;50.150;8.568;2023-11-19T03:36:42;9.60;99.90
14079;DHT22;7115;50.150;8.568;2023-11-19T03:39:10;9.60;99.90
14079;DHT22;7115;50.150;8.568;2023-11-19T03:41:36;9.60;99.90
14079;DHT22;7115;50.150;8.568;2023-11-19T03:44:06;9.60;99.90
14079;DHT22;7115;50.150;8.568;2023-11-19T03:46:33;9.60;99.90
14079;DHT22;7115;50.150;8.568;2023-11-19T03:49:02;9.60;99.90
14079;DHT22;7115;50.150;8.568;2023-11-19T03:51:30;9.60;99.90
14079;DHT22;7115;50.150;8.568;2023-11-19T03:53:59;9.60;99.90
14079;DHT22;7115;50.150;8.568;2023-11-19T03:56:26;9.70;99.90
14079;DHT22;7115;50.150;8.568;2023-11-19T03:58:54;9.70;99.90
14079;DHT22;7115;50.150;8.568;2023-11-19T04:01:20;9.70;99.90
14079;DHT22;7115;50.150;8.568;2023-11-19T04:03:47;9.70;99.90
14079;DHT22;7115;50.150;8.568;2023-11-19T04:06:17;9.70;99.90
14079;DHT22;7115;50.150;8.568;2023-11-19T04:08:44;9.70;99.90
14079;DHT22;7115;50.150;8.568;2023-11-19T04:11:12;9.70;99.90
14079;DHT22;7115;50.150;8.568;2023-11-19T04:13:39;9.80;99.90
14079;DHT22;7115;50.150;8.568;2023-11-19T04:16:07;9.80;99.90
14079;DHT22;7115;50.150;8.568;2023-11-19T04:18:34;9.80;99.90
14079;DHT22;7115;50.150;8.568;2023-11-19T04:21:01;9.80;99.90
14079;DHT22;7115;50.150;8.568;2023-11-19T04:23:28;9.80;99.90
14079;DHT22;7115;50.150;8.568;2023-11-19T04:25:55;9.80;99.90
14079;DHT22;7115;50.150;8.568;2023-11-19T04:28:38;9.80;99.90
14079;DHT22;7115;50.150;8.568;2023-11-19T04:31:05;9.80;99.90
14079;DHT22;7115;50.150;8.568;2023-11-19T04:33:33;9.80;99.90
14079;DHT22;7115;50.150;8.568;2023-11-19T04:35:59;9.80;99.90
14079;DHT22;7115;50.150;8.568;2023-11-19T04:38:26;9.80;99.90
14079;DHT22;7115;50.150;8.568;2023-11-19T04:40:53;9.90;99.90
14079;DHT22;7115;50.150;8.568;2023-11-19T04:43:20;9.90;99.90
14079;DHT22;7115;50.150;8.568;2023-11-19T04:45:49;9.90;99.90
14079;DHT22;7115;50.150;8.568;2023-11-19T04:48:16;9.90;99.90
14079;DHT22;7115;50.150;8.568;2023-11-19T04:50:43;9.90;99.90
14079;DHT22;7115;50.150;8.568;2023-11-19T04:53:10;9.90;99.90
14079;DHT22;7115;50.150;8.568;2023-11-19T04:55:37;10.00;99.90
14079;DHT22;7115;50.150;8.568;2023-11-19T04:58:04;10.00;99.90
14079;DHT22;7115;50.150;8.568;2023-11-19T05:00:30;10.00;99.90
14079;DHT22;7115;50.150;8.568;2023-11-19T05:02:59;10.00;99.90
14079;DHT22;7115;50.150;8.568;2023-11-19T05:05:26;10.10;99.90
14079;DHT22;7115;50.150;8.568;2023-11-19T05:07:53;10.10;99.90
14079;DHT22;7115;50.150;8.568;2023-11-19T05:10:21;10.10;99.90
14079;DHT22;7115;50.150;8.568;2023-11-19T05:12:48;10.10;99.90
14079;DHT22;7115;50.150;8.568;2023-11-19T05:15:16;10.10;99.90
14079;DHT22;7115;50.150;8.568;2023-11-19T05:17:43;10.10;99.90
14079;DHT22;7115;50.150;8.568;2023-11-19T05:20:12;10.10;99.90
14079;DHT22;7115;50.150;8.568;2023-11-19T05:22:42;10.20;99.90
14079;DHT22;7115;50.150;8.568;2023-11-19T05:25:09;10.10;99.90
14079;DHT22;7115;50.150;8.568;2023-11-19T05:27:38;10.10;99.90
14079;DHT22;7115;50.150;8.568;2023-11-19T05:30:06;10.20;99.90
14079;DHT22;7115;50.150;8.568;2023-11-19T05:32:37;10.20;99.90
14079;DHT22;7115;50.150;8.568;2023-11-19T05:35:05;10.20;99.90
14079;DHT22;7115;50.150;8.568;2023-11-19T05:37:33;10.20;99.90
14079;DHT22;7115;50.150;8.568;2023-11-19T05:40:02;10.20;99.90
14079;DHT22;7115;50.150;8.568;2023-11-19T05:42:30;10.20;99.90
14079;DHT22;7115;50.150;8.568;2023-11-19T05:44:57;10.20;99.90
14079;DHT22;7115;50.150;8.568;2023-11-19T05:47:24;10.20;99.90
14079;DHT22;7115;50.150;8.568;2023-11-19T05:49:51;10.20;99.90
14079;DHT22;7115;50.150;8.568;2023-11-19T05:52:18;10.30;99.90
14079;DHT22;7115;50.150;8.568;2023-11-19T05:54:46;10.10;99.90
14079;DHT22;7115;50.150;8.568;2023-11-19T05:57:18;10.40;99.90
14079;DHT22;7115;50.150;8.568;2023-11-19T05:59:50;10.30;99.90
14079;DHT22;7115;50.150;8.568;2023-11-19T06:02:17;10.30;99.90
14079;DHT22;7115;50.150;8.568;2023-11-19T06:04:44;10.30;99.90
14079;DHT22;7115;50.150;8.568;2023-11-19T06:07:14;10.40;99.90
14079;DHT22;7115;50.150;8.568;2023-11-19T06:09:42;10.40;99.90
14079;DHT22;7115;50.150;8.568;2023-11-19T06:12:10;10.50;99.90
14079;DHT22;7115;50.150;8.568;2023-11-19T06:14:37;10.50;99.90
14079;DHT22;7115;50.150;8.568;2023-11-19T06:17:04;10.50;99.90
14079;DHT22;7115;50.150;8.568;2023-11-19T06:19:31;10.60;99.90
14079;DHT22;7115;50.150;8.568;2023-11-19T06:21:58;10.60;99.90
14079;DHT22;7115;50.150;8.568;2023-11-19T06:24:25;10.50;99.90
14079;DHT22;7115;50.150;8.568;2023-11-19T06:26:52;10.30;99.90
14079;DHT22;7115;50.150;8.568;2023-11-19T06:29:20;10.50;99.90
14079;DHT22;7115;50.150;8.568;2023-11-19T06:31:47;10.50;99.90
14079;DHT22;7115;50.150;8.568;2023-11-19T06:34:15;10.40;99.90
14079;DHT22;7115;50.150;8.568;2023-11-19T06:36:42;10.40;99.90
14079;DHT22;7115;50.150;8.568;2023-11-19T06:39:12;10.40;99.90
14079;DHT22;7115;50.150;8.568;2023-11-19T06:41:39;10.40;99.90
14079;DHT22;7115;50.150;8.568;2023-11-19T06:44:06;10.40;99.90
14079;DHT22;7115;50.150;8.568;2023-11-19T06:46:34;10.40;99.90
14079;DHT22;7115;50.150;8.568;2023-11-19T06:49:01;10.40;99.90
14079;DHT22;7115;50.150;8.568;2023-11-19T06:51:28;10.40;99.90
14079;DHT22;7115;50.150;8.568;2023-11-19T06:53:59;10.40;99.90
14079;DHT22;7115;50.150;8.568;2023-11-19T06:56:26;10.40;99.90
14079;DHT22;7115;50.150;8.568;2023-11-19T06:58:53;10.40;99.90
14079;DHT22;7115;50.150;8.568;2023-11-19T07:01:21;10.50;99.90
14079;DHT22;7115;50.150;8.568;2023-11-19T07:03:49;10.50;99.90
14079;DHT22;7115;50.150;8.568;2023-11-19T07:06:18;10.50;99.90
14079;DHT22;7115;50.150;8.568;2023-11-19T07:08:45;10.50;99.90
14079;DHT22;7115;50.150;8.568;2023-11-19T07:11:12;10.60;99.90
14079;DHT22;7115;50.150;8.568;2023-11-19T07:13:40;10.60;99.90
14079;DHT22;7115;50.150;8.568;2023-11-19T07:16:08;10.60;99.90
14079;DHT22;7115;50.150;8.568;2023-11-19T07:18:36;10.70;99.90
14079;DHT22;7115;50.150;8.568;2023-11-19T07:21:06;10.70;99.90
14079;DHT22;7115;50.150;8.568;2023-11-19T07:23:34;10.70;99.90
14079;DHT22;7115;50.150;8.568;2023-11-19T07:26:04;10.70;99.90
14079;DHT22;7115;50.150;8.568;2023-11-19T07:28:31;10.70;99.90
14079;DHT22;7115;50.150;8.568;2023-11-19T07:30:57;10.70;99.90
14079;DHT22;7115;50.150;8.568;2023-11-19T07:33:24;10.70;99.90
14079;DHT22;7115;50.150;8.568;2023-11-19T07:35:51;10.70;99.90
14079;DHT22;7115;50.150;8.568;2023-11-19T07:38:20;10.70;99.90
14079;DHT22;7115;50.150;8.568;2023-11-19T07:40:47;10.70;99.90
14079;DHT22;7115;50.150;8.568;2023-11-19T07:43:17;10.80;99.90
14079;DHT22;7115;50.150;8.568;2023-11-19T07:45:44;10.80;99.90
14079;DHT22;7115;50.150;8.568;2023-11-19T07:48:12;10.80;99.90
14079;DHT22;7115;50.150;8.568;2023-11-19T07:50:40;10.80;99.90
14079;DHT22;7115;50.150;8.568;2023-11-19T07:53:07;10.90;99.90
14079;DHT22;7115;50.150;8.568;2023-11-19T07:55:36;10.80;99.90
14079;DHT22;7115;50.150;8.568;2023-11-19T07:58:09;10.90;99.90
14079;DHT22;7115;50.150;8.568;2023-11-19T08:00:36;10.90;99.90
14079;DHT22;7115;50.150;8.568;2023-11-19T08:03:04;10.90;99.90
14079;DHT22;7115;50.150;8.568;2023-11-19T08:05:31;10.90;99.90
14079;DHT22;7115;50.150;8.568;2023-11-19T08:07:58;10.90;99.90
14079;DHT22;7115;50.150;8.568;2023-11-19T08:10:25;11.00;99.90
14079;DHT22;7115;50.150;8.568;2023-11-19T08:12:54;11.00;99.90
14079;DHT22;7115;50.150;8.568;2023-11-19T08:15:21;11.00;99.90
14079;DHT22;7115;50.150;8.568;2023-11-19T08:17:50;11.10;99.90
14079;DHT22;7115;50.150;8.568;2023-11-19T08:20:18;11.10;99.90
14079;DHT22;7115;50.150;8.568;2023-11-19T08:22:45;11.10;99.90
14079;DHT22;7115;50.150;8.568;2023-11-19T08:25:12;11.20;99.90
14079;DHT22;7115;50.150;8.568;2023-11-19T08:27:39;11.20;99.90
14079;DHT22;7115;50.150;8.568;2023-11-19T08:30:09;11.20;99.90
14079;DHT22;7115;50.150;8.568;2023-11-19T08:32:36;11.20;99.90
14079;DHT22;7115;50.150;8.568;2023-11-19T08:35:03;11.30;99.90
14079;DHT22;7115;50.150;8.568;2023-11-19T08:37:30;11.30;99.90
14079;DHT22;7115;50.150;8.568;2023-11-19T08:39:57;11.30;99.90
14079;DHT22;7115;50.150;8.568;2023-11-19T08:42:24;11.30;99.90
14079;DHT22;7115;50.150;8.568;2023-11-19T08:44:51;11.30;99.90
14079;DHT22;7115;50.150;8.568;2023-11-19T08:47:22;11.30;99.90
14079;DHT22;7115;50.150;8.568;2023-11-19T08:49:50;11.30;99.90
14079;DHT22;7115;50.150;8.568;2023-11-19T08:52:21;11.40;99.90
14079;DHT22;7115;50.150;8.568;2023-11-19T08:54:49;11.40;99.90
14079;DHT22;7115;50.150;8.568;2023-11-19T08:57:15;11.40;99.90
14079;DHT22;7115;50.150;8.568;2023-11-19T08:59:42;11.50;99.90
14079;DHT22;7115;50.150;8.568;2023-11-19T09:02:10;11.50;99.90
14079;DHT22;7115;50.150;8.568;2023-11-19T09:04:38;11.60;99.90
14079;DHT22;7115;50.150;8.568;2023-11-19T09:07:05;11.60;99.90
14079;DHT22;7115;50.150;8.568;2023-11-19T09:09:32;11.80;99.90
14079;DHT22;7115;50.150;8.568;2023-11-19T09:12:02;12.00;99.90
14079;DHT22;7115;50.150;8.568;2023-11-19T09:14:30;12.20;99.90
14079;DHT22;7115;50.150;8.568;2023-11-19T09:16:57;12.40;99.90
14079;DHT22;7115;50.150;8.568;2023-11-19T09:19:25;12.50;99.90
14079;DHT22;7115;50.150;8.568;2023-11-19T09:21:54;13.10;99.90
14079;DHT22;7115;50.150;8.568;2023-11-19T09:24:21;13.90;99.90
14079;DHT22;7115;50.150;8.568;2023-11-19T09:26:48;14.80;99.90
14079;DHT22;7115;50.150;8.568;2023-11-19T09:29:15;15.70;99.90
14079;DHT22;7115;50.150;8.568;2023-11-19T09:31:42;16.50;99.90
14079;DHT22;7115;50.150;8.568;2023-11-19T09:34:09;17.30;99.90
14079;DHT22;7115;50.150;8.568;2023-11-19T09:36:36;17.80;99.90
14079;DHT22;7115;50.150;8.568;2023-11-19T09:39:04;18.10;99.90
14079;DHT22;7115;50.150;8.568;2023-11-19T09:41:32;18.60;99.90
14079;DHT22;7115;50.150;8.568;2023-11-19T09:43:59;19.10;99.90
14079;DHT22;7115;50.150;8.568;2023-11-19T09:46:26;19.50;99.90
14079;DHT22;7115;50.150;8.568;2023-11-19T09:48:56;19.90;99.90
14079;DHT22;7115;50.150;8.568;2023-11-19T09:51:24;20.30;99.90
14079;DHT22;7115;50.150;8.568;2023-11-19T09:53:51;20.60;99.90
14079;DHT22;7115;50.150;8.568;2023-11-19T09:56:20;20.80;99.90
14079;DHT22;7115;50.150;8.568;2023-11-19T09:58:47;21.00;99.90
14079;DHT22;7115;50.150;8.568;2023-11-19T10:01:14;21.50;99.90
14079;DHT22;7115;50.150;8.568;2023-11-19T10:03:47;22.00;99.90
14079;DHT22;7115;50.150;8.568;2023-11-19T10:06:15;22.50;99.90
14079;DHT22;7115;50.150;8.568;2023-11-19T10:08:43;22.90;99.90
14079;DHT22;7115;50.150;8.568;2023-11-19T10:11:11;23.50;99.90
14079;DHT22;7115;50.150;8.568;2023-11-19T10:13:41;24.00;99.90
14079;DHT22;7115;50.150;8.568;2023-11-19T10:16:10;24.50;99.90
14079;DHT22;7115;50.150;8.568;2023-11-19T10:18:43;24.90;99.90
14079;DHT22;7115;50.150;8.568;2023-11-19T10:21:12;24.90;99.90
14079;DHT22;7115;50.150;8.568;2023-11-19T10:23:50;25.00;99.90
14079;DHT22;7115;50.150;8.568;2023-11-19T10:26:19;24.90;99.90
14079;DHT22;7115;50.150;8.568;2023-11-19T10:28:47;24.80;99.80
14079;DHT22;7115;50.150;8.568;2023-11-19T10:31:15;24.40;99.50
14079;DHT22;7115;50.150;8.568;2023-11-19T10:33:43;24.20;99.30
14079;DHT22;7115;50.150;8.568;2023-11-19T10:36:12;23.90;99.00
14079;DHT22;7115;50.150;8.568;2023-11-19T10:38:40;23.40;99.00
14079;DHT22;7115;50.150;8.568;2023-11-19T10:41:07;23.00;99.10
14079;DHT22;7115;50.150;8.568;2023-11-19T10:43:43;22.40;99.10
14079;DHT22;7115;50.150;8.568;2023-11-19T10:46:14;21.80;99.10
14079;DHT22;7115;50.150;8.568;2023-11-19T10:48:41;21.20;99.40
14079;DHT22;7115;50.150;8.568;2023-11-19T10:51:08;20.60;99.60
14079;DHT22;7115;50.150;8.568;2023-11-19T10:53:37;19.90;99.90
14079;DHT22;7115;50.150;8.568;2023-11-19T10:56:11;19.40;99.90
14079;DHT22;7115;50.150;8.568;2023-11-19T10:58:42;19.00;99.90
14079;DHT22;7115;50.150;8.568;2023-11-19T11:01:15;18.80;99.90
14079;DHT22;7115;50.150;8.568;2023-11-19T11:03:45;18.60;99.90
14079;DHT22;7115;50.150;8.568;2023-11-19T11:06:18;18.50;99.90
14079;DHT22;7115;50.150;8.568;2023-11-19T11:08:46;18.40;99.90
14079;DHT22;7115;50.150;8.568;2023-11-19T11:11:15;18.30;99.90
14079;DHT22;7115;50.150;8.568;2023-11-19T11:13:44;18.20;99.90
14079;DHT22;7115;50.150;8.568;2023-11-19T11:16:14;18.20;99.90
14079;DHT22;7115;50.150;8.568;2023-11-19T11:18:41;18.10;99.90
14079;DHT22;7115;50.150;8.568;2023-11-19T11:21:13;18.10;99.90
14079;DHT22;7115;50.150;8.568;2023-11-19T11:24:08;17.90;99.90
14079;DHT22;7115;50.150;8.568;2023-11-19T11:27:20;17.70;99.90
14079;DHT22;7115;50.150;8.568;2023-11-19T11:29:59;17.60;99.90
14079;DHT22;7115;50.150;8.568;2023-11-19T11:32:35;17.50;99.90
14079;DHT22;7115;50.150;8.568;2023-11-19T11:35:21;17.40;99.90
14079;DHT22;7115;50.150;8.568;2023-11-19T11:37:59;17.50;99.90
14079;DHT22;7115;50.150;8.568;2023-11-19T11:40:27;17.40;99.90
14079;DHT22;7115;50.150;8.568;2023-11-19T11:42:54;17.30;99.90
14079;DHT22;7115;50.150;8.568;2023-11-19T11:45:35;17.30;99.90
14079;DHT22;7115;50.150;8.568;2023-11-19T11:48:10;17.20;99.90
14079;DHT22;7115;50.150;8.568;2023-11-19T11:50:49;17.10;99.90
14079;DHT22;7115;50.150;8.568;2023-11-19T11:53:17;16.90;99.90
14079;DHT22;7115;50.150;8.568;2023-11-19T11:55:55;16.80;99.90
14079;DHT22;7115;50.150;8.568;2023-11-19T11:58:29;16.60;99.90
14079;DHT22;7115;50.150;8.568;2023-11-19T12:00:58;16.50;99.90
14079;DHT22;7115;50.150;8.568;2023-11-19T12:03:29;16.40;99.90
14079;DHT22;7115;50.150;8.568;2023-11-19T12:05:58;16.30;99.90
14079;DHT22;7115;50.150;8.568;2023-11-19T12:08:29;16.40;99.90
14079;DHT22;7115;50.150;8.568;2023-11-19T12:10:58;16.20;99.90
14079;DHT22;7115;50.150;8.568;2023-11-19T12:13:42;16.10;99.90
14079;DHT22;7115;50.150;8.568;2023-11-19T12:16:10;16.10;99.90
14079;DHT22;7115;50.150;8.568;2023-11-19T12:18:40;16.00;99.90
14079;DHT22;7115;50.150;8.568;2023-11-19T12:21:08;16.10;99.90
14079;DHT22;7115;50.150;8.568;2023-11-19T12:23:45;16.20;99.90
14079;DHT22;7115;50.150;8.568;2023-11-19T12:26:34;16.20;99.90
14079;DHT22;7115;50.150;8.568;2023-11-19T12:29:01;16.10;99.90
14079;DHT22;7115;50.150;8.568;2023-11-19T12:31:34;16.10;99.90
14079;DHT22;7115;50.150;8.568;2023-11-19T12:34:07;16.10;99.90
14079;DHT22;7115;50.150;8.568;2023-11-19T12:36:40;16.10;99.90
14079;DHT22;7115;50.150;8.568;2023-11-19T12:39:08;16.20;99.90
14079;DHT22;7115;50.150;8.568;2023-11-19T12:41:49;16.20;99.90
14079;DHT22;7115;50.150;8.568;2023-11-19T12:44:16;16.20;99.90
14079;DHT22;7115;50.150;8.568;2023-11-19T12:46:43;16.30;99.90
14079;DHT22;7115;50.150;8.568;2023-11-19T12:49:12;16.30;99.90
14079;DHT22;7115;50.150;8.568;2023-11-19T12:51:40;16.30;99.90
14079;DHT22;7115;50.150;8.568;2023-11-19T12:54:07;16.30;99.90
14079;DHT22;7115;50.150;8.568;2023-11-19T12:56:34;16.30;99.90
14079;DHT22;7115;50.150;8.568;2023-11-19T12:59:12;16.40;99.90
14079;DHT22;7115;50.150;8.568;2023-11-19T13:01:39;16.40;99.90
14079;DHT22;7115;50.150;8.568;2023-11-19T13:04:18;16.50;99.90
14079;DHT22;7115;50.150;8.568;2023-11-19T13:06:46;16.50;99.90
14079;DHT22;7115;50.150;8.568;2023-11-19T13:09:31;16.60;99.90
14079;DHT22;7115;50.150;8.568;2023-11-19T13:11:58;16.60;99.90
14079;DHT22;7115;50.150;8.568;2023-11-19T13:14:36;16.60;99.90
14079;DHT22;7115;50.150;8.568;2023-11-19T13:17:08;16.60;99.90
14079;DHT22;7115;50.150;8.568;2023-11-19T13:19:37;16.60;99.90
14079;DHT22;7115;50.150;8.568;2023-11-19T13:22:04;16.60;99.90
14079;DHT22;7115;50.150;8.568;2023-11-19T13:24:31;16.60;99.90
14079;DHT22;7115;50.150;8.568;2023-11-19T13:26:58;16.60;99.90
14079;DHT22;7115;50.150;8.568;2023-11-19T13:29:25;16.50;99.90
14079;DHT22;7115;50.150;8.568;2023-11-19T13:31:53;16.50;99.90
14079;DHT22;7115;50.150;8.568;2023-11-19T13:34:20;16.50;99.90
14079;DHT22;7115;50.150;8.568;2023-11-19T13:36:48;16.50;99.90
14079;DHT22;7115;50.150;8.568;2023-11-19T13:39:15;16.50;99.90
14079;DHT22;7115;50.150;8.568;2023-11-19T13:41:49;16.50;99.90
14079;DHT22;7115;50.150;8.568;2023-11-19T13:44:16;16.40;99.90
14079;DHT22;7115;50.150;8.568;2023-11-19T13:46:45;16.40;99.90
14079;DHT22;7115;50.150;8.568;2023-11-19T13:49:12;16.40;99.90
14079;DHT22;7115;50.150;8.568;2023-11-19T13:51:39;16.40;99.90
14079;DHT22;7115;50.150;8.568;2023-11-19T13:54:08;16.40;99.90
14079;DHT22;7115;50.150;8.568;2023-11-19T13:56:34;16.40;99.90
14079;DHT22;7115;50.150;8.568;2023-11-19T13:59:01;16.40;99.90
14079;DHT22;7115;50.150;8.568;2023-11-19T14:01:28;16.30;99.90
14079;DHT22;7115;50.150;8.568;2023-11-19T14:03:55;16.30;99.90
14079;DHT22;7115;50.150;8.568;2023-11-19T14:06:23;16.20;99.90
14079;DHT22;7115;50.150;8.568;2023-11-19T14:08:50;16.20;99.90
14079;DHT22;7115;50.150;8.568;2023-11-19T14:11:19;16.10;99.90
14079;DHT22;7115;50.150;8.568;2023-11-19T14:13:46;16.10;99.90
14079;DHT22;7115;50.150;8.568;2023-11-19T14:16:13;16.10;99.90
14079;DHT22;7115;50.150;8.568;2023-11-19T14:18:41;16.00;99.90
14079;DHT22;7115;50.150;8.568;2023-11-19T14:21:08;16.00;99.90
14079;DHT22;7115;50.150;8.568;2023-11-19T14:23:35;16.00;99.90
14079;DHT22;7115;50.150;8.568;2023-11-19T14:26:02;15.90;99.90
14079;DHT22;7115;50.150;8.568;2023-11-19T14:28:30;15.80;99.90
14079;DHT22;7115;50.150;8.568;2023-11-19T14:30:58;15.80;99.90
14079;DHT22;7115;50.150;8.568;2023-11-19T14:33:25;15.70;99.90
14079;DHT22;7115;50.150;8.568;2023-11-19T14:35:52;15.80;99.90
14079;DHT22;7115;50.150;8.568;2023-11-19T14:38:19;15.50;99.90
14079;DHT22;7115;50.150;8.568;2023-11-19T14:40:46;15.50;99.90
14079;DHT22;7115;50.150;8.568;2023-11-19T14:43:14;15.40;99.90
14079;DHT22;7115;50.150;8.568;2023-11-19T14:45:43;15.40;99.90
14079;DHT22;7115;50.150;8.568;2023-11-19T14:48:16;15.30;99.90
14079;DHT22;7115;50.150;8.568;2023-11-19T14:50:44;15.30;99.90
14079;DHT22;7115;50.150;8.568;2023-11-19T14:53:11;15.30;99.90
14079;DHT22;7115;50.150;8.568;2023-11-19T14:55:38;15.20;99.90
14079;DHT22;7115;50.150;8.568;2023-11-19T14:58:05;15.10;99.90
14079;DHT22;7115;50.150;8.568;2023-11-19T15:00:37;15.10;99.90
14079;DHT22;7115;50.150;8.568;2023-11-19T15:03:06;15.10;99.90
14079;DHT22;7115;50.150;8.568;2023-11-19T15:05:33;15.00;99.90
14079;DHT22;7115;50.150;8.568;2023-11-19T15:08:01;15.10;99.90
14079;DHT22;7115;50.150;8.568;2023-11-19T15:10:29;15.00;99.90
14079;DHT22;7115;50.150;8.568;2023-11-19T15:12:56;15.00;99.90
14079;DHT22;7115;50.150;8.568;2023-11-19T15:15:24;14.90;99.90
14079;DHT22;7115;50.150;8.568;2023-11-19T15:17:54;14.90;99.90
14079;DHT22;7115;50.150;8.568;2023-11-19T15:20:23;14.90;99.90
14079;DHT22;7115;50.150;8.568;2023-11-19T15:22:50;14.90;99.90
14079;DHT22;7115;50.150;8.568;2023-11-19T15:25:17;14.80;99.90
14079;DHT22;7115;50.150;8.568;2023-11-19T15:27:43;14.80;99.90
14079;DHT22;7115;50.150;8.568;2023-11-19T15:30:12;14.70;99.90
14079;DHT22;7115;50.150;8.568;2023-11-19T15:32:39;14.70;99.90
14079;DHT22;7115;50.150;8.568;2023-11-19T15:35:07;14.70;99.90
14079;DHT22;7115;50.150;8.568;2023-11-19T15:37:36;14.70;99.90
14079;DHT22;7115;50.150;8.568;2023-11-19T15:40:05;14.70;99.90
14079;DHT22;7115;50.150;8.568;2023-11-19T15:42:34;14.70;99.90
14079;DHT22;7115;50.150;8.568;2023-11-19T15:45:02;14.60;99.90
14079;DHT22;7115;50.150;8.568;2023-11-19T15:47:32;14.60;99.90
14079;DHT22;7115;50.150;8.568;2023-11-19T15:49:59;14.60;99.90
14079;DHT22;7115;50.150;8.568;2023-11-19T15:52:26;14.60;99.90
14079;DHT22;7115;50.150;8.568;2023-11-19T15:54:55;14.60;99.90
14079;DHT22;7115;50.150;8.568;2023-11-19T15:57:22;14.60;99.90
14079;DHT22;7115;50.150;8.568;2023-11-19T15:59:49;14.50;99.90
14079;DHT22;7115;50.150;8.568;2023-11-19T16:02:17;14.50;99.90